Last 24 Hours

Canyon Lodge - 8,343ft

5 Minute Data | America/Los_Angeles
as of 9/2/26 5:50 PM PDT
Date & Time Temp (°F) RH (%) Dew Pt (°F) Wet Bulb (°F) Wind Dir (°) Wind Spd (mph) Wind Gust (mph) Wind Gst Dir (°)
9/2/26 - 1750 50.4 40 27.3 40.7 SSW | 202 5.1 13.1 S | 175
9/2/26 - 1745 50.6 42 28.2 41.0 SW | 227 4.5 10.4 S | 185
9/2/26 - 1740 50.8 41 28.2 41.1 SW | 218 4.0 10.5 SSE | 165
9/2/26 - 1735 50.7 40 27.0 40.7 WSW | 243 4.9 12.7 W | 261
9/2/26 - 1730 50.8 40 27.2 40.9 SW | 218 5.3 15.0 SSW | 201
9/2/26 - 1725 51.2 40 28.1 41.4 SW | 235 4.7 14.9 SW | 230
9/2/26 - 1720 50.9 41 28.0 41.2 SW | 228 6.0 17.5 SSW | 211
9/2/26 - 1715 51.4 41 28.6 41.6 SW | 220 4.3 15.0 SSW | 196
9/2/26 - 1710 51.0 41 28.0 41.2 SSW | 202 7.2 18.7 S | 170
9/2/26 - 1705 50.9 41 27.9 41.1 WSW | 247 6.8 20.0 WSW | 244
9/2/26 - 1700 51.6 42 29.0 41.8 WSW | 244 6.2 21.9 W | 266
9/2/26 - 1655 51.4 41 28.6 41.6 SW | 220 4.9 12.6 SW | 225
9/2/26 - 1650 51.4 41 28.4 41.5 SSW | 193 7.2 16.4 SW | 230
9/2/26 - 1645 51.6 41 28.6 41.7 SW | 217 5.5 16.0 SSW | 206
9/2/26 - 1640 51.6 41 28.5 41.7 SSW | 197 5.9 16.3 S | 188
9/2/26 - 1635 51.6 40 28.2 41.6 SW | 221 8.0 19.6 S | 183
9/2/26 - 1630 52.3 40 28.7 42.1 SSW | 202 6.7 19.4 S | 182
9/2/26 - 1625 52.8 40 29.2 42.5 SW | 218 4.6 15.2 S | 170
9/2/26 - 1620 53.1 41 30.0 42.9 WSW | 240 3.1 11.9 S | 180
9/2/26 - 1615 52.9 41 30.0 42.8 S | 182 5.0 13.4 SSW | 195
9/2/26 - 1610 52.9 41 30.1 42.8 WSW | 241 5.2 13.3 SW | 224
9/2/26 - 1605 52.7 41 29.8 42.6 SW | 234 4.8 13.6 W | 261
9/2/26 - 1600 52.2 41 29.3 42.2 S | 170 5.9 15.8 S | 187
9/2/26 - 1555 52.4 41 29.6 42.4 SSW | 201 5.9 16.0 SSE | 152
9/2/26 - 1550 51.4 41 28.6 41.6 SW | 229 4.5 15.6 S | 186
9/2/26 - 1545 52.1 41 28.8 42.0 WSW | 242 6.4 19.4 SSW | 202
9/2/26 - 1540 52.7 40 29.1 42.4 SSW | 202 4.7 21.2 S | 178
9/2/26 - 1535 52.8 40 29.2 42.5 SW | 223 6.0 16.5 SSW | 207
9/2/26 - 1530 52.2 40 28.8 42.0 SSW | 198 8.2 23.1 S | 174
9/2/26 - 1525 52.9 40 29.5 42.6 SSW | 204 5.2 21.1 SSE | 163
9/2/26 - 1520 52.4 41 29.2 42.3 SW | 218 6.6 17.7 S | 180
9/2/26 - 1515 51.7 41 28.6 41.7 SSW | 194 7.3 15.3 SSE | 166
9/2/26 - 1510 52.8 41 30.0 42.7 S | 173 7.4 21.1 SSE | 152
9/2/26 - 1505 53.1 42 30.9 43.2 SW | 230 2.3 10.4 SSW | 208
9/2/26 - 1500 53.2 42 30.8 43.2 SW | 228 4.2 12.4 WSW | 247
9/2/26 - 1455 52.5 41 29.8 42.6 S | 188 7.5 18.6 SSE | 151
9/2/26 - 1450 51.6 41 28.8 41.8 SSW | 194 8.4 21.2 S | 180
9/2/26 - 1445 52.3 41 29.4 42.3 S | 188 8.8 25.7 S | 169
9/2/26 - 1440 53.0 41 30.0 42.8 SSE | 168 7.9 22.2 SE | 141
9/2/26 - 1435 52.5 41 29.6 42.5 SSW | 202 4.3 15.3 SSE | 156
9/2/26 - 1430 52.1 41 29.0 42.0 S | 174 9.0 20.1 SSE | 164
9/2/26 - 1425 52.0 41 28.9 42.0 SW | 217 8.7 19.8 S | 191
9/2/26 - 1420 52.7 41 29.8 42.6 SSW | 206 5.0 15.1 SSW | 198
9/2/26 - 1415 52.9 41 29.9 42.7 S | 179 5.2 15.8 SE | 136
9/2/26 - 1410 52.1 41 29.2 42.1 S | 177 9.7 18.9 S | 174
9/2/26 - 1405 51.4 42 28.8 41.6 SW | 217 8.9 27.1 SSW | 202
9/2/26 - 1400 53.0 42 30.3 43.0 SW | 226 4.6 11.8 WSW | 248
9/2/26 - 1355 52.8 42 30.2 42.8 WSW | 238 4.1 12.0 SW | 220
9/2/26 - 1350 52.5 42 29.9 42.6 SSE | 167 7.5 25.4 S | 174
9/2/26 - 1345 51.4 42 29.0 41.7 S | 174 10.0 23.4 S | 187
9/2/26 - 1340 52.0 42 29.8 42.3 SW | 224 5.1 22.4 SSE | 154
9/2/26 - 1335 51.0 43 29.1 41.6 SSW | 207 7.0 18.5 S | 180
9/2/26 - 1330 51.6 43 29.9 42.1 S | 191 7.1 20.2 S | 183
9/2/26 - 1325 52.1 43 30.2 42.4 SSW | 198 8.6 18.8 W | 272
9/2/26 - 1320 52.0 42 29.7 42.2 SW | 216 7.0 21.7 S | 185
9/2/26 - 1315 51.7 42 29.5 42.1 SSW | 204 7.6 26.1 S | 180
9/2/26 - 1310 52.1 43 30.4 42.5 SSW | 203 6.5 27.5 S | 175
9/2/26 - 1305 52.2 42 30.0 42.4 S | 190 8.6 17.8 SSW | 197
9/2/26 - 1300 52.4 43 30.6 42.8 SW | 222 8.0 21.2 SSW | 208
9/2/26 - 1255 53.4 43 31.7 43.6 SSW | 198 5.4 14.4 SW | 226
9/2/26 - 1250 52.6 42 30.5 42.8 WSW | 256 4.9 18.5 SW | 218
9/2/26 - 1245 52.4 43 30.4 42.7 SSW | 211 6.6 16.1 WSW | 246
9/2/26 - 1240 52.7 43 31.0 43.0 S | 190 6.0 17.6 SSE | 149
9/2/26 - 1235 53.4 44 32.1 43.7 SSW | 208 2.8 10.3 SSW | 199
9/2/26 - 1230 52.7 44 31.3 43.1 SSW | 208 4.0 10.2 SW | 220
9/2/26 - 1225 52.6 43 31.0 43.0 WSW | 248 6.4 17.8 SSW | 199
9/2/26 - 1220 51.7 44 30.4 42.4 SW | 218 6.2 20.0 S | 182
9/2/26 - 1215 51.8 44 30.8 42.6 SW | 228 5.0 15.0 SW | 216
9/2/26 - 1210 50.8 45 30.2 41.8 SW | 232 7.6 22.4 WSW | 251
9/2/26 - 1205 51.4 46 31.3 42.5 WSW | 238 6.0 18.2 WSW | 247
9/2/26 - 1200 50.9 46 30.7 42.0 WSW | 244 7.4 15.9 SW | 226
9/2/26 - 1155 52.8 45 32.0 43.4 SSW | 213 6.3 17.2 WSW | 248
9/2/26 - 1150 52.0 45 31.2 42.8 SSE | 165 7.2 20.0 S | 179
9/2/26 - 1145 51.9 45 31.2 42.8 SSW | 198 7.9 20.1 S | 179
9/2/26 - 1140 51.7 45 30.9 42.5 SSW | 198 7.2 19.3 SSW | 204
9/2/26 - 1135 51.7 44 30.6 42.4 SSW | 193 5.8 19.4 SSE | 158
9/2/26 - 1130 52.8 45 31.8 43.4 SW | 216 5.3 18.4 SSE | 167
9/2/26 - 1125 52.1 44 30.8 42.7 SSW | 192 6.8 19.4 SSE | 157
9/2/26 - 1120 50.8 44 29.8 41.7 S | 190 8.0 20.4 S | 188
9/2/26 - 1115 51.2 44 30.2 42.0 S | 176 6.6 14.0 SSW | 195
9/2/26 - 1110 52.2 45 31.5 43.0 S | 188 4.7 14.5 S | 182
9/2/26 - 1105 51.4 45 30.6 42.3 S | 186 6.7 21.4 SSE | 152
9/2/26 - 1100 50.7 45 30.0 41.7 S | 187 6.9 14.5 SSW | 192
9/2/26 - 1055 50.7 45 30.2 41.8 SSW | 205 5.9 18.7 SSW | 192
9/2/26 - 1050 51.2 45 30.6 42.2 SSW | 200 7.5 16.8 S | 187
9/2/26 - 1045 50.7 45 30.1 41.7 SSW | 211 5.9 15.4 SW | 226
9/2/26 - 1040 50.3 45 29.8 41.5 SW | 225 6.6 17.6 SSW | 193
9/2/26 - 1035 50.3 45 29.9 41.5 WSW | 240 5.8 15.7 W | 273
9/2/26 - 1030 50.0 45 29.4 41.2 SSW | 204 5.2 11.2 SSW | 209
9/2/26 - 1025 50.0 45 29.3 41.1 SSW | 213 6.1 15.9 SSW | 208
9/2/26 - 1020 49.2 44 28.5 40.5 SSW | 200 7.7 17.2 SSW | 207
9/2/26 - 1015 49.2 45 28.8 40.6 SW | 222 6.2 18.6 WSW | 243
9/2/26 - 1010 50.0 45 29.6 41.2 SSW | 210 3.8 8.7 SE | 145
9/2/26 - 1005 48.9 45 28.3 40.2 SSW | 201 5.0 15.4 S | 176
9/2/26 - 1000 48.1 45 27.8 39.6 SW | 223 7.1 14.5 WSW | 248
9/2/26 - 0955 47.8 45 27.6 39.5 WSW | 241 6.2 13.2 S | 186
9/2/26 - 0950 48.3 45 28.0 39.9 SW | 224 4.7 12.4 WSW | 252
9/2/26 - 0945 47.7 45 27.5 39.4 SSW | 198 3.2 7.1 WSW | 252
9/2/26 - 0940 46.8 45 26.5 38.6 SW | 228 4.9 12.2 SW | 227
9/2/26 - 0935 46.6 45 26.4 38.4 SW | 224 7.0 13.3 S | 185
9/2/26 - 0930 46.6 45 26.6 38.5 WSW | 240 6.4 13.5 SSW | 211
9/2/26 - 0925 46.9 46 27.0 38.8 SW | 224 4.5 12.9 WSW | 258
9/2/26 - 0920 46.1 45 26.1 38.1 SW | 220 7.0 12.9 WSW | 258
9/2/26 - 0915 46.0 45 25.8 37.9 SSW | 202 5.2 14.4 SE | 146
9/2/26 - 0910 44.9 45 24.9 37.1 SSW | 199 7.2 20.5 SSE | 167
9/2/26 - 0905 43.8 45 24.0 36.2 SSW | 206 7.3 17.7 SW | 219
9/2/26 - 0900 43.3 45 23.4 35.7 SSW | 208 5.8 19.9 SW | 233
9/2/26 - 0855 43.0 45 23.3 35.6 SSW | 194 7.4 18.0 SSW | 197
9/2/26 - 0850 43.0 46 23.6 35.7 SW | 215 6.4 15.4 S | 188
9/2/26 - 0845 43.2 46 23.6 35.8 SSW | 211 7.0 18.5 S | 188
9/2/26 - 0840 43.2 45 23.4 35.7 SSW | 200 8.2 17.1 SSW | 197
9/2/26 - 0835 43.3 45 23.1 35.7 SSW | 198 9.3 24.0 SSW | 203
9/2/26 - 0830 44.0 45 23.8 36.3 S | 187 7.2 18.1 S | 177
9/2/26 - 0825 44.3 45 24.3 36.6 SSW | 195 6.3 17.9 SW | 214
9/2/26 - 0820 43.8 45 24.0 36.2 SSW | 204 6.9 14.0 SSE | 168
9/2/26 - 0815 43.2 45 23.3 35.6 SSW | 202 8.5 18.8 S | 183
9/2/26 - 0810 43.1 46 23.6 35.7 S | 180 9.0 21.0 S | 170
9/2/26 - 0805 42.7 46 23.1 35.3 SSW | 205 7.9 21.6 SSW | 192
9/2/26 - 0800 43.2 45 23.4 35.7 SSW | 202 7.0 22.1 S | 181
9/2/26 - 0755 43.6 45 23.8 36.0 S | 187 7.5 19.2 SSW | 195
9/2/26 - 0750 42.9 46 23.3 35.5 S | 183 8.0 15.4 SSW | 196
9/2/26 - 0745 43.3 46 23.6 35.8 SSW | 204 7.7 24.3 S | 186
9/2/26 - 0740 42.7 45 23.1 35.3 S | 184 8.1 17.7 S | 187
9/2/26 - 0735 42.6 45 22.8 35.2 SSW | 195 7.6 18.6 S | 184
9/2/26 - 0730 42.6 45 22.8 35.2 SSW | 196 7.2 18.1 S | 175
9/2/26 - 0725 43.1 45 23.5 35.7 SSW | 210 3.1 10.8 S | 186
9/2/26 - 0720 42.7 45 23.1 35.3 SW | 216 3.3 10.0 SSW | 192
9/2/26 - 0715 42.7 46 23.1 35.3 SSW | 210 5.5 24.2 SSE | 158
9/2/26 - 0710 42.1 45 22.4 34.8 SSW | 202 7.0 19.0 SSE | 153
9/2/26 - 0705 42.0 45 22.4 34.7 SSW | 194 5.6 17.0 SSW | 198
9/2/26 - 0700 41.5 45 22.0 34.3 S | 182 7.3 16.2 SSW | 195
9/2/26 - 0655 41.4 45 21.8 34.2 S | 179 5.4 14.6 SW | 236
9/2/26 - 0650 41.6 45 21.9 34.4 SSW | 199 7.7 22.3 S | 178
9/2/26 - 0645 41.7 45 22.1 34.5 SSW | 196 4.8 17.7 S | 170
9/2/26 - 0640 41.6 45 22.0 34.4 SSW | 211 6.0 15.2 S | 170
9/2/26 - 0635 42.0 46 22.5 34.8 SW | 215 7.8 15.5 WSW | 249
9/2/26 - 0630 41.6 45 22.0 34.4 SW | 219 4.1 15.1 WSW | 239
9/2/26 - 0625 41.5 45 21.9 34.3 SSW | 199 6.3 18.4 W | 261
9/2/26 - 0620 41.5 45 21.8 34.3 SW | 228 6.9 20.8 WSW | 244
9/2/26 - 0615 41.7 44 21.6 34.4 SSW | 209 5.8 13.8 S | 188
9/2/26 - 0610 41.7 44 21.6 34.4 SSW | 201 7.1 14.6 SW | 232
9/2/26 - 0605 41.7 45 21.8 34.4 SSW | 200 6.5 18.5 S | 183
9/2/26 - 0600 41.8 45 21.9 34.5 SW | 216 7.6 18.9 S | 181
9/2/26 - 0555 41.6 45 21.9 34.4 SSW | 212 7.1 19.5 SSW | 196
9/2/26 - 0550 42.0 45 22.2 34.7 SSW | 211 6.9 15.7 WSW | 248
9/2/26 - 0545 42.0 45 22.0 34.6 SW | 220 6.9 16.2 SSW | 210
9/2/26 - 0540 42.1 45 22.0 34.7 SW | 222 8.5 20.0 SSW | 202
9/2/26 - 0535 41.8 45 22.2 34.6 SSW | 211 6.9 18.9 SSW | 209
9/2/26 - 0530 42.3 45 22.5 35.0 WSW | 246 7.6 17.0 WNW | 298
9/2/26 - 0525 42.0 45 21.9 34.6 SW | 221 10.6 20.7 WSW | 238
9/2/26 - 0520 42.2 45 22.2 34.8 SW | 222 10.0 24.6 SSW | 209
9/2/26 - 0515 42.2 45 22.5 34.9 SW | 230 8.7 22.3 W | 266
9/2/26 - 0510 42.1 45 22.6 34.8 SW | 224 7.7 23.0 SW | 220
9/2/26 - 0505 42.3 46 23.1 35.1 SW | 222 9.6 23.6 W | 270
9/2/26 - 0500 42.3 46 23.0 35.1 SW | 230 6.9 16.3 W | 262
9/2/26 - 0455 42.6 46 23.2 35.3 SW | 223 8.0 20.2 SW | 233
9/2/26 - 0450 42.8 46 23.4 35.5 SW | 233 9.3 20.1 WSW | 243
9/2/26 - 0445 42.9 46 23.4 35.5 SW | 236 8.6 17.7 SW | 233
9/2/26 - 0440 43.2 45 23.4 35.7 SW | 234 8.3 20.4 WNW | 286
9/2/26 - 0435 43.3 45 23.5 35.8 SW | 229 10.4 22.1 WNW | 299
9/2/26 - 0430 43.1 45 23.3 35.6 SW | 229 10.0 26.8 SSW | 210
9/2/26 - 0425 43.2 44 23.0 35.6 SW | 226 10.0 22.8 S | 179
9/2/26 - 0420 43.4 44 22.9 35.7 SW | 221 10.0 26.6 SW | 232
9/2/26 - 0415 43.2 44 22.9 35.5 SSW | 211 8.6 21.2 S | 177
9/2/26 - 0410 43.2 45 23.1 35.6 S | 191 9.0 29.7 S | 185
9/2/26 - 0405 43.3 45 23.4 35.7 SSW | 213 10.8 20.4 SW | 214
9/2/26 - 0400 43.7 45 23.7 36.1 SW | 217 9.9 26.2 SSW | 200
9/2/26 - 0355 43.4 45 23.3 35.8 SW | 215 8.3 23.5 S | 174
9/2/26 - 0350 43.6 44 23.4 35.9 SW | 231 8.3 18.4 WSW | 254
9/2/26 - 0345 43.5 44 23.0 35.8 SW | 236 8.2 18.6 W | 279
9/2/26 - 0340 44.1 44 23.6 36.3 SSW | 211 10.5 25.1 SSE | 162
9/2/26 - 0335 43.7 44 23.4 36.0 SW | 218 8.9 21.5 SW | 220
9/2/26 - 0330 43.8 45 23.7 36.2 SW | 226 9.7 18.5 WNW | 286
9/2/26 - 0325 43.8 45 23.7 36.1 SSW | 211 10.0 23.0 SW | 222
9/2/26 - 0320 43.7 44 23.4 36.0 SW | 216 11.2 24.7 S | 175
9/2/26 - 0315 43.8 44 23.6 36.1 SW | 229 9.1 20.8 W | 263
9/2/26 - 0310 43.8 44 23.6 36.1 SW | 220 7.5 21.7 S | 169
9/2/26 - 0305 44.1 44 23.8 36.3 SW | 231 7.0 15.3 W | 273
9/2/26 - 0300 43.9 44 23.5 36.1 SW | 215 8.5 18.8 SSW | 210
9/2/26 - 0255 44.0 44 23.5 36.2 SSW | 213 7.2 21.4 SW | 221
9/2/26 - 0250 43.8 44 23.2 36.0 SW | 218 7.1 21.2 WSW | 250
9/2/26 - 0245 44.2 44 23.6 36.3 SW | 227 7.2 18.5 WSW | 242
9/2/26 - 0240 44.1 44 23.3 36.2 SW | 219 8.2 28.0 WSW | 246
9/2/26 - 0235 44.3 44 23.8 36.4 SW | 226 8.7 22.0 WSW | 249
9/2/26 - 0230 44.6 44 24.0 36.6 SW | 232 9.5 22.6 SW | 220
9/2/26 - 0225 44.9 43 24.0 36.8 SSW | 208 10.3 24.5 SSE | 159
9/2/26 - 0220 44.9 43 23.7 36.8 SW | 226 8.8 18.1 WSW | 250
9/2/26 - 0215 45.3 43 24.2 37.1 WSW | 237 8.2 22.3 SW | 236
9/2/26 - 0210 45.3 44 24.4 37.1 SSW | 205 8.9 22.1 WSW | 252
9/2/26 - 0205 44.9 44 24.3 36.9 SW | 227 10.0 23.7 S | 191
9/2/26 - 0200 44.8 43 23.9 36.7 SSW | 213 8.8 20.4 WSW | 248
9/2/26 - 0155 44.8 43 23.9 36.7 SW | 228 7.2 27.0 SW | 230
9/2/26 - 0150 44.7 44 23.9 36.7 SSW | 206 8.5 20.3 W | 273
9/2/26 - 0145 44.8 43 23.9 36.7 SW | 215 8.7 20.4 SW | 234
9/2/26 - 0140 45.1 43 24.2 37.0 SW | 229 8.3 25.2 WSW | 257
9/2/26 - 0135 45.3 43 24.1 37.0 SSW | 209 9.8 22.0 SSW | 197
9/2/26 - 0130 45.5 43 24.2 37.2 SSW | 207 10.2 20.8 WNW | 294
9/2/26 - 0125 45.4 43 24.3 37.2 SSW | 212 11.1 26.7 SSW | 192
9/2/26 - 0120 45.3 43 24.2 37.1 SSW | 210 10.6 20.6 SW | 220
9/2/26 - 0115 45.3 43 24.2 37.1 SW | 216 8.4 20.6 SSE | 160
9/2/26 - 0110 45.4 43 24.2 37.1 SW | 225 9.8 24.3 SW | 232
9/2/26 - 0105 45.3 43 23.9 37.0 SW | 225 11.1 21.4 WSW | 254
9/2/26 - 0100 45.1 42 23.6 36.8 SW | 216 8.9 21.3 WSW | 242
9/2/26 - 0055 44.9 42 23.3 36.6 SW | 222 8.0 22.5 WSW | 247
9/2/26 - 0050 44.9 42 23.4 36.6 SW | 215 8.2 22.6 SW | 228
9/2/26 - 0045 45.2 42 23.6 36.8 SW | 218 9.0 22.4 S | 188
9/2/26 - 0040 45.3 42 23.5 36.9 SSW | 204 9.9 27.6 SSW | 197
9/2/26 - 0035 45.0 42 23.5 36.8 SW | 229 7.9 22.4 SW | 224
9/2/26 - 0030 44.7 42 23.2 36.5 SW | 230 9.1 21.9 SW | 217
9/2/26 - 0025 44.7 42 23.1 36.4 WSW | 238 8.5 21.6 W | 259
9/2/26 - 0020 44.8 42 23.2 36.5 WSW | 238 9.1 24.1 W | 262
9/2/26 - 0015 45.0 42 23.1 36.6 SW | 222 10.1 23.7 W | 270
9/2/26 - 0010 45.1 42 23.2 36.7 SSW | 212 8.7 22.7 S | 175
9/2/26 - 0005 45.4 42 23.4 36.9 SW | 223 7.8 15.8 SW | 220
9/2/26 - 0000 45.3 41 23.2 36.8 SW | 234 9.5 21.8 WSW | 253
9/1/26 - 2355 45.2 41 22.8 36.6 SW | 232 9.2 19.4 WSW | 256
9/1/26 - 2350 45.3 41 22.8 36.7 SW | 222 9.3 21.6 WSW | 258
9/1/26 - 2345 45.5 40 22.8 36.8 SW | 230 8.8 19.7 S | 188
9/1/26 - 2340 45.6 40 22.9 36.9 SW | 232 8.7 23.6 WSW | 249
9/1/26 - 2335 45.5 41 23.1 36.9 SW | 228 10.5 21.3 WSW | 256
9/1/26 - 2330 45.5 41 23.2 36.9 SW | 214 8.8 18.4 S | 180
9/1/26 - 2325 45.6 41 23.3 37.0 SW | 215 7.1 18.1 WSW | 241
9/1/26 - 2320 45.6 41 23.4 37.0 SW | 232 7.6 20.4 WSW | 244
9/1/26 - 2315 45.7 41 23.4 37.1 SW | 222 6.7 17.2 WSW | 247
9/1/26 - 2310 45.8 41 23.4 37.1 WSW | 242 10.3 25.3 SSW | 201
9/1/26 - 2305 45.7 41 23.3 37.1 SW | 232 9.0 24.7 WSW | 241
9/1/26 - 2300 46.2 41 23.7 37.4 SW | 236 10.7 22.3 WSW | 251
9/1/26 - 2255 46.4 41 24.0 37.7 WSW | 243 9.6 22.6 WSW | 243
9/1/26 - 2250 46.2 41 23.8 37.5 SW | 226 7.3 20.2 W | 277
9/1/26 - 2245 45.7 41 23.2 37.0 SW | 220 7.8 19.5 SSW | 208
9/1/26 - 2240 45.8 41 23.2 37.1 SW | 235 8.2 23.3 S | 186
9/1/26 - 2235 45.5 41 23.0 36.8 SW | 234 7.7 27.4 SSW | 199
9/1/26 - 2230 45.4 40 22.7 36.7 WSW | 238 5.9 18.4 WSW | 248
9/1/26 - 2225 45.6 40 22.6 36.8 SW | 228 8.7 20.5 SSW | 208
9/1/26 - 2220 45.6 39 22.4 36.8 SW | 217 8.5 16.8 SSE | 158
9/1/26 - 2215 45.3 40 22.3 36.5 SW | 235 8.7 18.0 WSW | 251
9/1/26 - 2210 45.4 40 22.6 36.7 SW | 227 7.1 21.1 W | 262
9/1/26 - 2205 45.5 40 22.6 36.7 SW | 227 7.0 30.8 WNW | 285
9/1/26 - 2200 45.5 40 22.6 36.7 SW | 224 6.0 18.8 WSW | 249
9/1/26 - 2155 45.5 40 22.8 36.8 SW | 232 7.5 19.3 SSW | 196
9/1/26 - 2150 45.4 41 22.9 36.8 SW | 225 5.2 14.8 SSW | 208
9/1/26 - 2145 45.6 41 23.2 37.0 WSW | 237 8.3 19.8 SW | 229
9/1/26 - 2140 45.7 41 23.3 37.1 WSW | 238 9.1 22.5 WSW | 250
9/1/26 - 2135 45.3 40 22.4 36.6 SW | 220 7.6 20.0 SW | 226
9/1/26 - 2130 45.6 40 22.6 36.8 WSW | 238 8.2 21.5 WNW | 290
9/1/26 - 2125 45.6 40 22.7 36.8 SW | 230 8.6 19.8 SW | 232
9/1/26 - 2120 45.8 40 22.7 37.0 SW | 222 7.9 22.0 WSW | 251
9/1/26 - 2115 46.0 40 22.8 37.1 SW | 227 9.0 24.1 SW | 234
9/1/26 - 2110 46.1 40 22.9 37.2 WSW | 239 8.4 20.2 W | 264
9/1/26 - 2105 45.7 39 22.1 36.8 SW | 234 8.0 22.2 W | 277
9/1/26 - 2100 45.7 39 22.2 36.8 SW | 228 5.6 15.9 S | 186
9/1/26 - 2055 46.0 39 22.4 37.0 SSW | 208 6.2 19.4 W | 261
9/1/26 - 2050 46.1 39 22.6 37.1 SW | 216 7.0 19.1 SW | 232
9/1/26 - 2045 46.3 39 22.8 37.3 SW | 230 7.6 19.5 W | 263
9/1/26 - 2040 46.6 39 22.9 37.4 SW | 220 7.3 19.9 WSW | 250
9/1/26 - 2035 46.7 38 22.6 37.4 SW | 218 6.6 17.3 WSW | 256
9/1/26 - 2030 46.7 39 22.8 37.4 WSW | 238 8.5 22.1 WSW | 238
9/1/26 - 2025 46.2 39 22.6 37.1 WSW | 245 9.8 21.1 SSW | 213
9/1/26 - 2020 46.3 39 22.5 37.2 WSW | 244 10.4 24.8 W | 264
9/1/26 - 2015 46.6 39 22.8 37.4 WSW | 237 9.5 24.3 SW | 231
9/1/26 - 2010 46.6 38 22.6 37.3 SW | 235 7.4 25.2 SW | 222
9/1/26 - 2005 46.6 38 22.6 37.3 SW | 235 9.1 18.4 WSW | 250
9/1/26 - 2000 46.4 38 22.5 37.2 SSW | 207 6.9 19.0 W | 267
9/1/26 - 1955 46.6 38 22.6 37.3 WSW | 238 12.1 27.2 WSW | 240
9/1/26 - 1950 46.6 38 22.4 37.3 SW | 225 6.8 17.6 WSW | 242
9/1/26 - 1945 46.8 38 22.3 37.4 SSW | 213 9.8 24.7 WSW | 248
9/1/26 - 1940 46.7 37 22.1 37.2 SW | 222 8.6 19.2 SW | 214
9/1/26 - 1935 46.9 37 22.3 37.4 SSW | 206 8.4 20.6 W | 268
9/1/26 - 1930 47.1 38 22.7 37.7 SW | 217 9.4 21.5 WSW | 255
9/1/26 - 1925 47.1 38 23.1 37.8 WSW | 241 9.8 19.5 WSW | 246
9/1/26 - 1920 47.3 38 23.0 37.8 SW | 229 10.0 24.9 SW | 235
9/1/26 - 1915 47.4 38 23.1 37.9 SW | 226 5.5 15.7 WSW | 238
9/1/26 - 1910 47.6 38 23.4 38.1 WSW | 239 8.9 23.7 WSW | 238
9/1/26 - 1905 48.0 38 23.5 38.3 SW | 231 8.8 23.0 SSW | 198
9/1/26 - 1900 48.4 37 23.7 38.6 SW | 236 9.0 16.8 SSW | 204
9/1/26 - 1855 48.3 37 23.3 38.4 SW | 225 9.3 18.2 WSW | 252
9/1/26 - 1850 49.0 37 23.8 38.9 SW | 219 10.2 21.0 SW | 232
9/1/26 - 1845 49.1 37 23.8 39.0 SW | 230 5.9 15.2 WSW | 253
9/1/26 - 1840 49.2 37 23.8 39.1 SW | 216 8.2 21.4 SSW | 209
9/1/26 - 1835 49.6 36 24.0 39.3 SW | 223 6.6 18.9 S | 188
9/1/26 - 1830 50.0 36 24.2 39.5 SSW | 192 3.7 15.2 S | 190
9/1/26 - 1825 50.0 36 24.0 39.5 S | 190 6.8 19.4 S | 186
9/1/26 - 1820 50.1 37 24.6 39.7 SSW | 203 5.3 12.5 SSW | 193
9/1/26 - 1815 50.8 38 26.2 40.6 SW | 228 4.0 11.9 S | 190
9/1/26 - 1810 51.0 39 27.0 40.9 SW | 222 6.3 17.4 WSW | 253
9/1/26 - 1805 51.2 38 26.7 40.9 SSW | 207 5.9 15.1 WSW | 256
9/1/26 - 1800 51.1 38 26.5 40.8 SSW | 201 7.9 20.5 SSW | 210
9/1/26 - 1755 51.5 38 26.8 41.0 SW | 216 6.4 21.5 S | 169
9/1/26 - 1750 51.5 38 26.6 41.0 WSW | 240 5.9 21.0 W | 266
Max 53.4 46 32.1 43.7 - 12.1 30.8 -
Avg 47.2 42 25.5 38.5 - 7.4 19.1 -
Min 41.4 36 21.6 34.2 - 2.3 7.1 -